Time;durP1;ratioP1;P1;durP2;ratioP2;P2;SDS_P1;SDS_P2;PMS_P1;PMS_P2;Temp;Humidity;BMP_temperature;BMP_pressure;BME280_temperature;BME280_humidity;BME280_pressure;Samples;Min_cycle;Max_cycle;Signal;HPM_P1;HPM_P2
2022/05/16 00:02:17;;;;;;;;;;;;;;;;;;5048744;28;19916;-54
2022/05/16 00:04:43;;;;;;;;;;;;;;;;;;5048547;28;19921;-55
2022/05/16 00:07:09;;;;;;;;;;;;;;;;;;5048790;28;20007;-55
2022/05/16 00:09:34;;;;;;;;;;;;;;;;;;5049591;28;20012;-55
2022/05/16 00:12:00;;;;;;;;;;;;;;;;;;5048445;28;19921;-54
2022/05/16 00:14:25;;;;;;;;;;;;;;;;;;5048593;28;19962;-56
2022/05/16 00:16:50;;;;;;;;;;;;;;;;;;5048917;28;19919;-55
2022/05/16 00:19:16;;;;;;;;;;;;;;;;;;5048534;28;19917;-54
2022/05/16 00:21:41;;;;;;;;;;;;;;;;;;5048327;28;19925;-55
2022/05/16 00:24:06;;;;;;;;;;;;;;;;;;5048897;28;19925;-54
2022/05/16 00:26:34;;;;;;;;;;;;;;;;;;5048798;28;19994;-55
2022/05/16 00:28:59;;;;;;;;;;;;;;;;;;5048012;28;20371;-55
2022/05/16 00:31:24;;;;;;;;;;;;;;;;;;5048220;28;20015;-55
2022/05/16 00:33:49;;;;;;;;;;;;;;;;;;5047834;28;19928;-54
2022/05/16 00:36:15;;;;;;;;;;;;;;;;;;5048824;28;19940;-55
2022/05/16 00:38:40;;;;;;;;;;;;;;;;;;5047670;28;19921;-55
2022/05/16 00:41:06;;;;;;;;;;;;;;;;;;5048548;28;20042;-54
2022/05/16 00:43:52;;;;;;;;;;;;;;;;;;5048543;28;19925;-55
2022/05/16 00:46:18;;;;;;;;;;;;;;;;;;5047865;28;20291;-55
2022/05/16 00:48:43;;;;;;;;;;;;;;;;;;5046712;28;19924;-54
2022/05/16 00:51:12;;;;;;;;;;;;;;;;;;5047450;28;19979;-54
2022/05/16 00:53:38;;;;;;;;;;;;;;;;;;5047341;28;19917;-54
2022/05/16 00:56:04;;;;;;;;;;;;;;;;;;5048609;28;19913;-53
2022/05/16 00:58:30;;;;;;;;;;;;;;;;;;5047635;28;20535;-54
2022/05/16 01:00:55;;;;;;;;;;;;;;;;;;5048531;28;20405;-55
2022/05/16 01:06:06;;;;;;;;;;;;;;;;;;5048830;28;20006;-55
2022/05/16 01:08:33;;;;;;;;;;;;;;;;;;5047574;28;19924;-54
2022/05/16 01:11:01;;;;;;;;;;;;;;;;;;5048730;28;19923;-54
2022/05/16 01:13:30;;;;;;;;;;;;;;;;;;5047779;28;19921;-54
2022/05/16 01:15:56;;;;;;;;;;;;;;;;;;5046946;28;20263;-54
2022/05/16 01:18:22;;;;;;;;;;;;;;;;;;5047516;28;19916;-53
2022/05/16 01:20:57;;;;;;;;;;;;;;;;;;5048118;28;20011;-54
2022/05/16 01:23:23;;;;;;;;;;;;;;;;;;5046554;28;19916;-55
2022/05/16 01:25:50;;;;;;;;;;;;;;;;;;5044724;28;19920;-55
2022/05/16 01:28:17;;;;;;;;;;;;;;;;;;5047857;28;20386;-55
2022/05/16 01:30:46;;;;;;;;;;;;;;;;;;5047191;28;19913;-55
2022/05/16 01:33:12;;;;;;;;;;;;;;;;;;5047818;28;20011;-55
2022/05/16 01:35:37;;;;;;;;;;;;;;;;;;5047396;28;20078;-55
2022/05/16 01:38:18;;;;;;;;;;;;;;;;;;5046549;28;19917;-55
2022/05/16 01:40:43;;;;;;;;;;;;;;;;;;5047292;28;20010;-55
2022/05/16 01:43:09;;;;;;;;;;;;;;;;;;5048678;28;20366;-54
2022/05/16 01:45:35;;;;;;;;;;;;;;;;;;5048197;28;19956;-55
2022/05/16 01:48:01;;;;;;;;;;;;;;;;;;5046524;28;20014;-54
2022/05/16 01:50:26;;;;;;;;;;;;;;;;;;5048283;28;20062;-54
2022/05/16 01:52:52;;;;;;;;;;;;;;;;;;5052046;28;19976;-54
2022/05/16 01:55:17;;;;;;;;;;;;;;;;;;5047687;28;19924;-54
2022/05/16 01:57:43;;;;;;;;;;;;;;;;;;5050836;28;20046;-53
2022/05/16 02:00:11;;;;;;;;;;;;;;;;;;5052024;28;20386;-54
2022/05/16 02:02:36;;;;;;;;;;;;;;;;;;5051484;28;20392;-53
2022/05/16 02:05:02;;;;;;;;;;;;;;;;;;5049841;28;19916;-54
2022/05/16 02:07:27;;;;;;;;;;;;;;;;;;5050573;28;20414;-53
2022/05/16 02:09:53;;;;;;;;;;;;;;;;;;5051569;28;20015;-53
2022/05/16 02:12:18;;;;;;;;;;;;;;;;;;5051524;28;19920;-53
2022/05/16 02:14:44;;;;;;;;;;;;;;;;;;5051614;28;19963;-54
2022/05/16 02:17:09;;;;;;;;;;;;;;;;;;5050508;28;20038;-53
2022/05/16 02:19:34;;;;;;;;;;;;;;;;;;5048591;28;19917;-54
2022/05/16 02:24:43;;;;;;;;;;;;;;;;;;5051390;28;19928;-53
2022/05/16 02:27:10;;;;;;;;;;;;;;;;;;5051235;28;19924;-54
2022/05/16 02:29:35;;;;;;;;;;;;;;;;;;5048643;28;20443;-55
2022/05/16 02:32:01;;;;;;;;;;;;;;;;;;5051408;28;19917;-55
2022/05/16 02:34:27;;;;;;;;;;;;;;;;;;5050544;28;19916;-56
2022/05/16 02:36:52;;;;;;;;;;;;;;;;;;5051079;28;19923;-55
2022/05/16 02:39:17;;;;;;;;;;;;;;;;;;5050174;28;20301;-55
2022/05/16 02:41:43;;;;;;;;;;;;;;;;;;5048315;28;19923;-55
2022/05/16 02:44:08;;;;;;;;;;;;;;;;;;5051025;28;19994;-54
2022/05/16 02:46:33;;;;;;;;;;;;;;;;;;5049215;28;19948;-55
2022/05/16 02:48:59;;;;;;;;;;;;;;;;;;5048441;28;19917;-53
2022/05/16 02:51:24;;;;;;;;;;;;;;;;;;5050598;28;19927;-54
2022/05/16 02:53:50;;;;;;;;;;;;;;;;;;5049646;28;20394;-53
2022/05/16 02:56:15;;;;;;;;;;;;;;;;;;5051074;28;19994;-54
2022/05/16 02:58:41;;;;;;;;;;;;;;;;;;5049690;28;19917;-54
2022/05/16 03:01:07;;;;;;;;;;;;;;;;;;5049299;28;19917;-54
2022/05/16 03:03:32;;;;;;;;;;;;;;;;;;5049726;28;20012;-54
2022/05/16 03:05:57;;;;;;;;;;;;;;;;;;5050414;28;20015;-54
2022/05/16 03:08:23;;;;;;;;;;;;;;;;;;5049939;28;19971;-54
2022/05/16 03:10:48;;;;;;;;;;;;;;;;;;5050026;28;20033;-54
2022/05/16 03:13:14;;;;;;;;;;;;;;;;;;5050651;28;19921;-54
2022/05/16 03:15:39;;;;;;;;;;;;;;;;;;5049658;28;19927;-54
2022/05/16 03:18:05;;;;;;;;;;;;;;;;;;5046009;28;19923;-54
2022/05/16 03:20:30;;;;;;;;;;;;;;;;;;5047886;28;19959;-55
2022/05/16 03:22:56;;;;;;;;;;;;;;;;;;5050302;28;19943;-54
2022/05/16 03:25:21;;;;;;;;;;;;;;;;;;5050218;28;19967;-55
2022/05/16 03:27:46;;;;;;;;;;;;;;;;;;5049209;28;19975;-54
2022/05/16 03:30:12;;;;;;;;;;;;;;;;;;5050194;28;19943;-54
2022/05/16 03:32:37;;;;;;;;;;;;;;;;;;5048970;28;20405;-54
2022/05/16 03:35:03;;;;;;;;;;;;;;;;;;5049410;28;19923;-54
2022/05/16 03:37:28;;;;;;;;;;;;;;;;;;5048401;28;19963;-55
2022/05/16 03:42:37;;;;;;;;;;;;;;;;;;5048431;28;19975;-55
2022/05/16 03:45:04;;;;;;;;;;;;;;;;;;5049314;28;19956;-55
2022/05/16 03:47:29;;;;;;;;;;;;;;;;;;5044936;28;19982;-55
2022/05/16 03:49:55;;;;;;;;;;;;;;;;;;5049277;28;19917;-54
2022/05/16 03:52:20;;;;;;;;;;;;;;;;;;5049824;28;19920;-54
2022/05/16 03:54:45;;;;;;;;;;;;;;;;;;5048405;28;19917;-55
2022/05/16 03:57:10;;;;;;;;;;;;;;;;;;5048815;28;19917;-55
2022/05/16 03:59:36;;;;;;;;;;;;;;;;;;5049424;28;20236;-55
2022/05/16 04:02:01;;;;;;;;;;;;;;;;;;5048665;28;19923;-55
2022/05/16 04:04:27;;;;;;;;;;;;;;;;;;5047228;28;20382;-54
2022/05/16 04:06:52;;;;;;;;;;;;;;;;;;5047879;28;20029;-55
2022/05/16 04:09:18;;;;;;;;;;;;;;;;;;5048586;28;20203;-55
2022/05/16 04:11:43;;;;;;;;;;;;;;;;;;5048418;28;20011;-55
2022/05/16 04:14:09;;;;;;;;;;;;;;;;;;5048474;28;20012;-55
2022/05/16 04:16:34;;;;;;;;;;;;;;;;;;5048510;28;20008;-55
2022/05/16 04:18:59;;;;;;;;;;;;;;;;;;5048064;28;20408;-55
2022/05/16 04:21:25;;;;;;;;;;;;;;;;;;5047944;28;19966;-55
2022/05/16 04:23:50;;;;;;;;;;;;;;;;;;5048993;28;19927;-54
2022/05/16 04:26:16;;;;;;;;;;;;;;;;;;5049494;28;20392;-55
2022/05/16 04:28:41;;;;;;;;;;;;;;;;;;5048293;28;19916;-55
2022/05/16 04:31:06;;;;;;;;;;;;;;;;;;5047648;28;19917;-55
2022/05/16 04:33:33;;;;;;;;;;;;;;;;;;5048577;28;19924;-55
2022/05/16 04:35:59;;;;;;;;;;;;;;;;;;5049079;28;20011;-55
2022/05/16 04:38:24;;;;;;;;;;;;;;;;;;5048033;28;20015;-55
2022/05/16 04:43:33;;;;;;;;;;;;;;;;;;5048288;28;19963;-54
2022/05/16 04:45:59;;;;;;;;;;;;;;;;;;5047494;28;20332;-56
2022/05/16 04:48:24;;;;;;;;;;;;;;;;;;5048250;28;19913;-55
2022/05/16 04:50:50;;;;;;;;;;;;;;;;;;5049262;28;20302;-55
2022/05/16 04:53:15;;;;;;;;;;;;;;;;;;5048594;28;20390;-56
2022/05/16 04:55:40;;;;;;;;;;;;;;;;;;5048513;28;19920;-55
2022/05/16 04:58:05;;;;;;;;;;;;;;;;;;5047628;28;19979;-55
2022/05/16 05:00:31;;;;;;;;;;;;;;;;;;5048249;28;19916;-54
2022/05/16 05:02:59;;;;;;;;;;;;;;;;;;5048876;28;19955;-55
2022/05/16 05:05:24;;;;;;;;;;;;;;;;;;5048448;28;19927;-56
2022/05/16 05:07:50;;;;;;;;;;;;;;;;;;5042327;28;20466;-55
2022/05/16 05:15:44;;;;;;;;;;;;;;;;;;5048283;28;19963;-55
2022/05/16 05:18:10;;;;;;;;;;;;;;;;;;5046934;28;20342;-55
2022/05/16 05:20:35;;;;;;;;;;;;;;;;;;5049231;28;20513;-56
2022/05/16 05:23:01;;;;;;;;;;;;;;;;;;5047972;28;19933;-54
2022/05/16 05:25:30;;;;;;;;;;;;;;;;;;5049347;28;19967;-55
2022/05/16 05:27:55;;;;;;;;;;;;;;;;;;5052388;28;19960;-56
2022/05/16 05:30:25;;;;;;;;;;;;;;;;;;5051808;28;19921;-56
2022/05/16 05:32:51;;;;;;;;;;;;;;;;;;5052337;28;19956;-56
2022/05/16 05:35:17;;;;;;;;;;;;;;;;;;5052240;28;19967;-56
2022/05/16 05:37:42;;;;;;;;;;;;;;;;;;5051416;28;20399;-56
2022/05/16 05:40:09;;;;;;;;;;;;;;;;;;5050696;28;20008;-56
2022/05/16 05:42:34;;;;;;;;;;;;;;;;;;5048130;28;20290;-56
2022/05/16 05:45:00;;;;;;;;;;;;;;;;;;5045900;28;19931;-56
2022/05/16 05:47:26;;;;;;;;;;;;;;;;;;5049523;28;19924;-55
2022/05/16 05:49:51;;;;;;;;;;;;;;;;;;5051759;28;19923;-55
2022/05/16 05:52:17;;;;;;;;;;;;;;;;;;5051610;28;20294;-56
2022/05/16 05:54:46;;;;;;;;;;;;;;;;;;5051820;28;20392;-56
2022/05/16 05:57:11;;;;;;;;;;;;;;;;;;5051044;28;20362;-55
2022/05/16 05:59:37;;;;;;;;;;;;;;;;;;5051500;28;19975;-55
2022/05/16 06:02:03;;;;;;;;;;;;;;;;;;5051221;28;20047;-55
2022/05/16 06:04:28;;;;;;;;;;;;;;;;;;5051332;28;19921;-56
2022/05/16 06:06:54;;;;;;;;;;;;;;;;;;5051391;28;19928;-56
2022/05/16 06:09:19;;;;;;;;;;;;;;;;;;5049439;28;20464;-56
2022/05/16 06:11:44;;;;;;;;;;;;;;;;;;5050954;28;20449;-57
2022/05/16 06:14:10;;;;;;;;;;;;;;;;;;5051119;28;19920;-56
2022/05/16 06:16:35;;;;;;;;;;;;;;;;;;5050422;28;19943;-56
2022/05/16 06:19:00;;;;;;;;;;;;;;;;;;5050100;28;20309;-56
2022/05/16 06:21:26;;;;;;;;;;;;;;;;;;5050527;28;20381;-56
2022/05/16 06:23:51;;;;;;;;;;;;;;;;;;5049342;28;20058;-56
2022/05/16 06:26:16;;;;;;;;;;;;;;;;;;5046857;28;19927;-56
2022/05/16 06:28:41;;;;;;;;;;;;;;;;;;5049460;28;19920;-56
2022/05/16 06:31:07;;;;;;;;;;;;;;;;;;5050250;28;19913;-56
2022/05/16 06:33:33;;;;;;;;;;;;;;;;;;5049401;28;20014;-56
2022/05/16 06:35:59;;;;;;;;;;;;;;;;;;5050631;28;20073;-56
2022/05/16 06:38:26;;;;;;;;;;;;;;;;;;5050197;28;19913;-56
2022/05/16 06:40:52;;;;;;;;;;;;;;;;;;5049957;28;20016;-56
2022/05/16 06:43:19;;;;;;;;;;;;;;;;;;5051124;28;19923;-56
2022/05/16 06:45:44;;;;;;;;;;;;;;;;;;5050721;28;19917;-56
2022/05/16 06:48:10;;;;;;;;;;;;;;;;;;5049847;28;19930;-55
2022/05/16 06:50:36;;;;;;;;;;;;;;;;;;5050673;28;20374;-55
2022/05/16 06:53:03;;;;;;;;;;;;;;;;;;5050170;28;20334;-55
2022/05/16 06:55:28;;;;;;;;;;;;;;;;;;5046201;28;19917;-55
2022/05/16 06:57:54;;;;;;;;;;;;;;;;;;5045263;28;19923;-56
2022/05/16 07:00:19;;;;;;;;;;;;;;;;;;5049022;28;19920;-56
2022/05/16 07:02:45;;;;;;;;;;;;;;;;;;5050395;28;20019;-55
2022/05/16 07:05:12;;;;;;;;;;;;;;;;;;5049789;28;19967;-56
2022/05/16 07:07:37;;;;;;;;;;;;;;;;;;5049599;28;20014;-57
2022/05/16 07:10:03;;;;;;;;;;;;;;;;;;5051095;28;19987;-55
2022/05/16 07:12:29;;;;;;;;;;;;;;;;;;5050783;28;19930;-55
2022/05/16 07:14:54;;;;;;;;;;;;;;;;;;5051031;28;19917;-56
2022/05/16 07:17:19;;;;;;;;;;;;;;;;;;5049906;28;19919;-55
2022/05/16 07:19:46;;;;;;;;;;;;;;;;;;5050286;28;19931;-55
2022/05/16 07:22:16;;;;;;;;;;;;;;;;;;5050461;28;19916;-55
2022/05/16 07:24:42;;;;;;;;;;;;;;;;;;5050287;28;19921;-56
2022/05/16 07:29:52;;;;;;;;;;;;;;;;;;5051258;28;20275;-55
2022/05/16 07:32:17;;;;;;;;;;;;;;;;;;5050046;28;19912;-56
2022/05/16 07:34:43;;;;;;;;;;;;;;;;;;5049861;28;19927;-56
2022/05/16 07:37:09;;;;;;;;;;;;;;;;;;5049651;28;20342;-56
2022/05/16 07:39:35;;;;;;;;;;;;;;;;;;5050565;28;19920;-56
2022/05/16 07:42:04;;;;;;;;;;;;;;;;;;5047903;28;19917;-56
2022/05/16 07:44:29;;;;;;;;;;;;;;;;;;5049741;28;19921;-55
2022/05/16 07:46:55;;;;;;;;;;;;;;;;;;5049067;28;19917;-56
2022/05/16 07:49:22;;;;;;;;;;;;;;;;;;5049157;28;19917;-55
2022/05/16 07:51:47;;;;;;;;;;;;;;;;;;5048486;28;19959;-55
2022/05/16 07:54:13;;;;;;;;;;;;;;;;;;5049568;28;19978;-55
2022/05/16 07:56:39;;;;;;;;;;;;;;;;;;5050081;28;19916;-55
2022/05/16 07:59:04;;;;;;;;;;;;;;;;;;5049226;28;19952;-55
2022/05/16 08:01:30;;;;;;;;;;;;;;;;;;5049759;28;19921;-56
2022/05/16 08:03:55;;;;;;;;;;;;;;;;;;5050158;28;20037;-55
2022/05/16 08:06:20;;;;;;;;;;;;;;;;;;5048153;28;19916;-55
2022/05/16 08:11:30;;;;;;;;;;;;;;;;;;5049650;28;19928;-55
2022/05/16 08:13:55;;;;;;;;;;;;;;;;;;5043524;28;19917;-56
2022/05/16 08:16:20;;;;;;;;;;;;;;;;;;5048924;28;19927;-55
2022/05/16 08:18:45;;;;;;;;;;;;;;;;;;5048680;28;19921;-56
2022/05/16 08:21:11;;;;;;;;;;;;;;;;;;5049554;28;20026;-55
2022/05/16 08:23:37;;;;;;;;;;;;;;;;;;5049284;28;20259;-55
2022/05/16 08:26:04;;;;;;;;;;;;;;;;;;5048695;28;20267;-56
2022/05/16 08:28:29;;;;;;;;;;;;;;;;;;5048226;28;19995;-55
2022/05/16 08:30:55;;;;;;;;;;;;;;;;;;5047604;28;20468;-56
2022/05/16 08:33:20;;;;;;;;;;;;;;;;;;5048769;28;19923;-55
2022/05/16 08:39:52;;;;;;;;;;;;;;;;;;5048378;28;19996;-56
2022/05/16 08:41:16;;;;;;;;;;;;;;;;;;5048994;28;19935;-55
2022/05/16 08:43:44;;;;;;;;;;;;;;;;;;5048056;28;20059;-56
2022/05/16 08:46:28;;;;;;;;;;;;;;;;;;5048026;28;20033;-56
2022/05/16 08:48:57;;;;;;;;;;;;;;;;;;5046476;28;20007;-56
2022/05/16 08:51:28;;;;;;;;;;;;;;;;;;5049296;28;20388;-56
2022/05/16 08:54:10;;;;;;;;;;;;;;;;;;5048433;28;19924;-55
2022/05/16 08:56:38;;;;;;;;;;;;;;;;;;5048280;28;19924;-56
2022/05/16 08:59:18;;;;;;;;;;;;;;;;;;5048286;28;19913;-56
2022/05/16 09:02:07;;;;;;;;;;;;;;;;;;5045988;28;19923;-56
2022/05/16 09:04:53;;;;;;;;;;;;;;;;;;5045800;28;19931;-56
2022/05/16 09:07:29;;;;;;;;;;;;;;;;;;5013952;28;19931;-56
2022/05/16 09:09:54;;;;;;;;;;;;;;;;;;5049159;28;19939;-55
2022/05/16 09:12:45;;;;;;;;;;;;;;;;;;5048806;28;19928;-56
2022/05/16 09:15:31;;;;;;;;;;;;;;;;;;5029356;28;19924;-56
2022/05/16 09:18:05;;;;;;;;;;;;;;;;;;5026817;28;19962;-56
2022/05/16 09:20:40;;;;;;;;;;;;;;;;;;5048735;28;20005;-56
2022/05/16 09:23:09;;;;;;;;;;;;;;;;;;5045557;28;20421;-56
2022/05/16 09:26:12;;;;;;;;;;;;;;;;;;5048563;28;20008;-56
2022/05/16 09:28:42;;;;;;;;;;;;;;;;;;5004010;28;19925;-56
2022/05/16 09:31:23;;;;;;;;;;;;;;;;;;5034296;28;19928;-56
2022/05/16 09:33:51;;;;;;;;;;;;;;;;;;5047060;28;19916;-56
2022/05/16 09:36:22;;;;;;;;;;;;;;;;;;5048548;28;19924;-55
2022/05/16 09:38:47;;;;;;;;;;;;;;;;;;5047464;28;19912;-56
2022/05/16 09:41:25;;;;;;;;;;;;;;;;;;5048436;28;20007;-57
2022/05/16 09:43:58;;;;;;;;;;;;;;;;;;5048424;28;19923;-56
2022/05/16 09:46:40;;;;;;;;;;;;;;;;;;5048585;28;20417;-57
2022/05/16 09:49:06;;;;;;;;;;;;;;;;;;5046309;28;19916;-56
2022/05/16 09:51:38;;;;;;;;;;;;;;;;;;5048108;28;19917;-56
2022/05/16 09:54:13;;;;;;;;;;;;;;;;;;5047455;28;19972;-57
2022/05/16 09:56:38;;;;;;;;;;;;;;;;;;5048312;28;19919;-57
2022/05/16 09:59:05;;;;;;;;;;;;;;;;;;5047535;28;20016;-56
2022/05/16 10:01:34;;;;;;;;;;;;;;;;;;5047584;28;20380;-56
2022/05/16 10:04:13;;;;;;;;;;;;;;;;;;5048076;28;20058;-56
2022/05/16 10:06:41;;;;;;;;;;;;;;;;;;5048655;28;19912;-56
2022/05/16 10:09:08;;;;;;;;;;;;;;;;;;5047247;28;19932;-57
2022/05/16 10:11:33;;;;;;;;;;;;;;;;;;5047981;28;20309;-57
2022/05/16 10:13:59;;;;;;;;;;;;;;;;;;5051186;28;19944;-56
2022/05/16 10:16:27;;;;;;;;;;;;;;;;;;5051126;28;20008;-55
2022/05/16 10:18:59;;;;;;;;;;;;;;;;;;5048360;28;19971;-55
2022/05/16 10:21:24;;;;;;;;;;;;;;;;;;5050180;28;19920;-55
2022/05/16 10:23:51;;;;;;;;;;;;;;;;;;5047610;28;19916;-55
2022/05/16 10:26:18;;;;;;;;;;;;;;;;;;5051268;28;19928;-55
2022/05/16 10:28:49;;;;;;;;;;;;;;;;;;5050406;28;20335;-55
2022/05/16 10:34:07;;;;;;;;;;;;;;;;;;5049057;28;19987;-55
2022/05/16 10:36:33;;;;;;;;;;;;;;;;;;5050674;28;20365;-55
2022/05/16 10:38:58;;;;;;;;;;;;;;;;;;5050812;28;19964;-56
2022/05/16 10:41:28;;;;;;;;;;;;;;;;;;5049036;28;19921;-54
2022/05/16 10:43:53;;;;;;;;;;;;;;;;;;5047477;28;19955;-55
2022/05/16 10:46:21;;;;;;;;;;;;;;;;;;5050170;28;19964;-56
2022/05/16 10:48:50;;;;;;;;;;;;;;;;;;5048077;28;20307;-56
2022/05/16 10:51:26;;;;;;;;;;;;;;;;;;5049870;28;19916;-57
2022/05/16 10:54:05;;;;;;;;;;;;;;;;;;5049881;28;19925;-56
2022/05/16 10:56:36;;;;;;;;;;;;;;;;;;5050183;28;19916;-56
2022/05/16 10:59:13;;;;;;;;;;;;;;;;;;5046956;28;19929;-57
2022/05/16 11:01:42;;;;;;;;;;;;;;;;;;5050227;28;19936;-57
2022/05/16 11:04:13;;;;;;;;;;;;;;;;;;5049998;28;19970;-56
2022/05/16 11:06:39;;;;;;;;;;;;;;;;;;5050643;28;20398;-56
2022/05/16 11:09:27;;;;;;;;;;;;;;;;;;5050449;28;19956;-57
2022/05/16 11:12:08;;;;;;;;;;;;;;;;;;5020939;28;20294;-57
2022/05/16 11:14:38;;;;;;;;;;;;;;;;;;5049960;28;19924;-57
2022/05/16 11:17:25;;;;;;;;;;;;;;;;;;5046921;28;20027;-57
2022/05/16 11:20:04;;;;;;;;;;;;;;;;;;5050441;28;20453;-57
2022/05/16 11:22:36;;;;;;;;;;;;;;;;;;5049723;28;20298;-56
2022/05/16 11:25:10;;;;;;;;;;;;;;;;;;5049567;28;20421;-56
2022/05/16 11:27:41;;;;;;;;;;;;;;;;;;5049343;28;20440;-57
2022/05/16 11:30:12;;;;;;;;;;;;;;;;;;5050556;28;19923;-57
2022/05/16 11:32:42;;;;;;;;;;;;;;;;;;5050135;28;20328;-59
2022/05/16 11:35:12;;;;;;;;;;;;;;;;;;5050036;28;20243;-59
2022/05/16 11:37:46;;;;;;;;;;;;;;;;;;5047797;28;19912;-59
2022/05/16 11:40:32;;;;;;;;;;;;;;;;;;5050575;28;19943;-59
2022/05/16 11:43:05;;;;;;;;;;;;;;;;;;5050417;28;19935;-59
2022/05/16 11:45:49;;;;;;;;;;;;;;;;;;5049989;28;19925;-59
2022/05/16 11:48:14;;;;;;;;;;;;;;;;;;5046827;28;20172;-58
2022/05/16 11:50:46;;;;;;;;;;;;;;;;;;5050530;28;20393;-59
2022/05/16 11:53:20;;;;;;;;;;;;;;;;;;5050234;28;19928;-58
2022/05/16 12:01:27;;;;;;;;;;;;;;;;;;5048748;28;20346;-59
2022/05/16 12:04:11;;;;;;;;;;;;;;;;;;5047388;28;19974;-58
2022/05/16 12:06:37;;;;;;;;;;;;;;;;;;5048892;28;19921;-57
2022/05/16 12:09:17;;;;;;;;;;;;;;;;;;5048390;28;20381;-57
2022/05/16 12:12:02;;;;;;;;;;;;;;;;;;5048223;28;20382;-58
2022/05/16 12:14:29;;;;;;;;;;;;;;;;;;5046717;28;20369;-58
2022/05/16 12:16:55;;;;;;;;;;;;;;;;;;5047976;28;19917;-58
2022/05/16 12:19:26;;;;;;;;;;;;;;;;;;5048375;28;20333;-57
2022/05/16 12:21:54;;;;;;;;;;;;;;;;;;5048650;28;20306;-57
2022/05/16 12:24:22;;;;;;;;;;;;;;;;;;5046553;28;19921;-57
2022/05/16 12:26:48;;;;;;;;;;;;;;;;;;5048571;28;19970;-56
2022/05/16 12:29:14;;;;;;;;;;;;;;;;;;5047409;28;20353;-57
2022/05/16 12:31:42;;;;;;;;;;;;;;;;;;5047390;28;19931;-57
2022/05/16 12:34:08;;;;;;;;;;;;;;;;;;5047645;28;19917;-56
2022/05/16 12:36:34;;;;;;;;;;;;;;;;;;5048017;28;20325;-57
2022/05/16 12:39:19;;;;;;;;;;;;;;;;;;5047642;28;20004;-58
2022/05/16 12:41:52;;;;;;;;;;;;;;;;;;5039450;28;19925;-56
2022/05/16 12:44:29;;;;;;;;;;;;;;;;;;5048433;28;19928;-56
2022/05/16 12:47:13;;;;;;;;;;;;;;;;;;5045499;28;19993;-56
2022/05/16 12:49:57;;;;;;;;;;;;;;;;;;5046656;28;19999;-56
2022/05/16 12:52:37;;;;;;;;;;;;;;;;;;5046527;28;19923;-57
2022/05/16 12:55:21;;;;;;;;;;;;;;;;;;5048285;28;19917;-57
2022/05/16 12:57:51;;;;;;;;;;;;;;;;;;5047241;28;19920;-56
2022/05/16 13:00:21;;;;;;;;;;;;;;;;;;5049007;28;19923;-55
2022/05/16 13:02:52;;;;;;;;;;;;;;;;;;5048381;28;20050;-56
2022/05/16 13:05:32;;;;;;;;;;;;;;;;;;5047551;28;20325;-56
2022/05/16 13:08:09;;;;;;;;;;;;;;;;;;5046633;28;19917;-57
2022/05/16 13:10:41;;;;;;;;;;;;;;;;;;5046043;28;19956;-56
2022/05/16 13:13:36;;;;;;;;;;;;;;;;;;5042867;28;20011;-56
2022/05/16 13:16:11;;;;;;;;;;;;;;;;;;5048421;28;20362;-56
2022/05/16 13:18:51;;;;;;;;;;;;;;;;;;5045020;28;19917;-56
2022/05/16 13:21:17;;;;;;;;;;;;;;;;;;5048151;28;20366;-54
2022/05/16 13:23:42;;;;;;;;;;;;;;;;;;5048032;28;19917;-55
2022/05/16 13:31:40;;;;;;;;;;;;;;;;;;5048564;28;19924;-54
2022/05/16 13:34:05;;;;;;;;;;;;;;;;;;5047731;28;19920;-55
2022/05/16 13:36:31;;;;;;;;;;;;;;;;;;5047590;28;19920;-55
2022/05/16 13:38:58;;;;;;;;;;;;;;;;;;5047418;28;19939;-56
2022/05/16 13:41:25;;;;;;;;;;;;;;;;;;5047091;28;19996;-53
2022/05/16 13:43:51;;;;;;;;;;;;;;;;;;5045776;28;20009;-53
2022/05/16 13:46:16;;;;;;;;;;;;;;;;;;5048556;28;19921;-53
2022/05/16 13:48:42;;;;;;;;;;;;;;;;;;5050839;28;19951;-53
2022/05/16 13:51:07;;;;;;;;;;;;;;;;;;5051519;28;20385;-53
2022/05/16 13:53:33;;;;;;;;;;;;;;;;;;5051557;28;19932;-52
2022/05/16 13:55:59;;;;;;;;;;;;;;;;;;5047992;28;19917;-55
2022/05/16 13:58:29;;;;;;;;;;;;;;;;;;5050781;28;19917;-55
2022/05/16 14:01:12;;;;;;;;;;;;;;;;;;5043991;28;19924;-55
2022/05/16 14:03:38;;;;;;;;;;;;;;;;;;5051781;28;19917;-55
2022/05/16 14:06:03;;;;;;;;;;;;;;;;;;5049442;28;20444;-55
2022/05/16 14:08:45;;;;;;;;;;;;;;;;;;5050432;28;19951;-56
2022/05/16 14:11:17;;;;;;;;;;;;;;;;;;5051843;28;19916;-56
2022/05/16 14:13:44;;;;;;;;;;;;;;;;;;5050426;28;19921;-56
2022/05/16 14:16:14;;;;;;;;;;;;;;;;;;5050984;28;20310;-58
2022/05/16 14:18:42;;;;;;;;;;;;;;;;;;5050802;28;19963;-58
2022/05/16 14:21:14;;;;;;;;;;;;;;;;;;5051319;28;19921;-56
2022/05/16 14:23:44;;;;;;;;;;;;;;;;;;5050665;28;20556;-56
2022/05/16 14:26:09;;;;;;;;;;;;;;;;;;5051145;28;19929;-56
2022/05/16 14:28:42;;;;;;;;;;;;;;;;;;5048347;28;19921;-56
2022/05/16 14:31:44;;;;;;;;;;;;;;;;;;5049511;28;19917;-57
2022/05/16 14:34:23;;;;;;;;;;;;;;;;;;4988798;28;20418;-59
2022/05/16 14:36:49;;;;;;;;;;;;;;;;;;5044480;28;20345;-55
2022/05/16 14:39:24;;;;;;;;;;;;;;;;;;5048326;28;19921;-56
2022/05/16 14:42:03;;;;;;;;;;;;;;;;;;5050920;28;19916;-56
2022/05/16 14:44:33;;;;;;;;;;;;;;;;;;5047750;28;19916;-56
2022/05/16 14:47:02;;;;;;;;;;;;;;;;;;5050022;28;20003;-56
2022/05/16 14:49:28;;;;;;;;;;;;;;;;;;5047741;28;19955;-56
2022/05/16 14:51:54;;;;;;;;;;;;;;;;;;5049439;28;19964;-56
2022/05/16 14:54:21;;;;;;;;;;;;;;;;;;5050356;28;20295;-56
2022/05/16 14:56:46;;;;;;;;;;;;;;;;;;5051016;28;19988;-57
2022/05/16 14:59:11;;;;;;;;;;;;;;;;;;5049331;28;19990;-56
2022/05/16 15:04:20;;;;;;;;;;;;;;;;;;5046786;28;19956;-56
2022/05/16 15:06:46;;;;;;;;;;;;;;;;;;5049230;28;19964;-57
2022/05/16 15:09:13;;;;;;;;;;;;;;;;;;5049429;28;19959;-57
2022/05/16 15:11:43;;;;;;;;;;;;;;;;;;5049957;28;19959;-56
2022/05/16 15:14:08;;;;;;;;;;;;;;;;;;5049524;28;19978;-58
2022/05/16 15:16:33;;;;;;;;;;;;;;;;;;5048211;28;20398;-56
2022/05/16 15:18:59;;;;;;;;;;;;;;;;;;5047541;28;19917;-57
2022/05/16 15:21:25;;;;;;;;;;;;;;;;;;5048651;28;19943;-57
2022/05/16 15:23:51;;;;;;;;;;;;;;;;;;5047883;28;19916;-58
2022/05/16 15:26:18;;;;;;;;;;;;;;;;;;5046489;28;19921;-58
2022/05/16 15:28:43;;;;;;;;;;;;;;;;;;5038877;28;20412;-58
2022/05/16 15:31:08;;;;;;;;;;;;;;;;;;5044360;28;20221;-58
2022/05/16 15:33:33;;;;;;;;;;;;;;;;;;5046016;28;19978;-57
2022/05/16 15:35:59;;;;;;;;;;;;;;;;;;5045315;28;19921;-57
2022/05/16 15:38:24;;;;;;;;;;;;;;;;;;5045415;28;20382;-57
2022/05/16 15:40:50;;;;;;;;;;;;;;;;;;5045229;28;19977;-58
2022/05/16 15:43:18;;;;;;;;;;;;;;;;;;5046883;28;19916;-58
2022/05/16 15:45:45;;;;;;;;;;;;;;;;;;5047749;28;19920;-57
2022/05/16 15:48:12;;;;;;;;;;;;;;;;;;5046144;28;19917;-57
2022/05/16 15:50:37;;;;;;;;;;;;;;;;;;5046803;28;19924;-57
2022/05/16 15:53:04;;;;;;;;;;;;;;;;;;5048182;28;19917;-57
2022/05/16 15:55:29;;;;;;;;;;;;;;;;;;5047611;28;20297;-57
2022/05/16 15:57:54;;;;;;;;;;;;;;;;;;5046963;28;19947;-58
2022/05/16 16:00:22;;;;;;;;;;;;;;;;;;5042654;28;19924;-57
2022/05/16 16:02:50;;;;;;;;;;;;;;;;;;5047199;28;19959;-58
2022/05/16 16:10:49;;;;;;;;;;;;;;;;;;5046275;28;20015;-56
2022/05/16 16:13:16;;;;;;;;;;;;;;;;;;5047065;28;19919;-57
2022/05/16 16:15:42;;;;;;;;;;;;;;;;;;5044651;28;19935;-56
2022/05/16 16:18:08;;;;;;;;;;;;;;;;;;5044874;28;19923;-58
2022/05/16 16:20:33;;;;;;;;;;;;;;;;;;5046688;28;19924;-56
2022/05/16 16:22:59;;;;;;;;;;;;;;;;;;5045928;28;20003;-56
2022/05/16 16:25:25;;;;;;;;;;;;;;;;;;5044109;28;20099;-57
2022/05/16 16:27:52;;;;;;;;;;;;;;;;;;5046683;28;19917;-56
2022/05/16 16:30:18;;;;;;;;;;;;;;;;;;5043917;28;20289;-58
2022/05/16 16:32:43;;;;;;;;;;;;;;;;;;5045564;28;19913;-57
2022/05/16 16:35:10;;;;;;;;;;;;;;;;;;5046162;28;20019;-58
2022/05/16 16:37:36;;;;;;;;;;;;;;;;;;5044199;28;19921;-56
2022/05/16 16:40:05;;;;;;;;;;;;;;;;;;5045833;28;19925;-56
2022/05/16 16:42:31;;;;;;;;;;;;;;;;;;5045603;28;20013;-56
2022/05/16 16:44:58;;;;;;;;;;;;;;;;;;5045399;28;20031;-56
2022/05/16 16:47:24;;;;;;;;;;;;;;;;;;5046170;28;19912;-55
2022/05/16 16:49:49;;;;;;;;;;;;;;;;;;5047033;28;19925;-56
2022/05/16 16:57:43;;;;;;;;;;;;;;;;;;5046193;28;19967;-56
2022/05/16 17:00:18;;;;;;;;;;;;;;;;;;5046679;28;19913;-56
2022/05/16 17:02:48;;;;;;;;;;;;;;;;;;5044705;28;19925;-57
2022/05/16 17:05:15;;;;;;;;;;;;;;;;;;5047264;28;19917;-56
2022/05/16 17:07:43;;;;;;;;;;;;;;;;;;5047410;28;19927;-57
2022/05/16 17:10:12;;;;;;;;;;;;;;;;;;5047529;28;20359;-56
2022/05/16 17:12:37;;;;;;;;;;;;;;;;;;5047253;28;19917;-56
2022/05/16 17:15:04;;;;;;;;;;;;;;;;;;5048283;28;19921;-57
2022/05/16 17:17:29;;;;;;;;;;;;;;;;;;5046458;28;19917;-57
2022/05/16 17:19:54;;;;;;;;;;;;;;;;;;5048011;28;19920;-57
2022/05/16 17:22:20;;;;;;;;;;;;;;;;;;5051568;28;19978;-56
2022/05/16 17:24:47;;;;;;;;;;;;;;;;;;5048479;28;19921;-57
2022/05/16 17:27:13;;;;;;;;;;;;;;;;;;5051233;28;19916;-57
2022/05/16 17:29:38;;;;;;;;;;;;;;;;;;5052262;28;19924;-56
2022/05/16 17:32:04;;;;;;;;;;;;;;;;;;5050405;28;19970;-57
2022/05/16 17:34:29;;;;;;;;;;;;;;;;;;5051195;28;19996;-56
2022/05/16 17:36:55;;;;;;;;;;;;;;;;;;5047291;28;19927;-56
2022/05/16 17:39:21;;;;;;;;;;;;;;;;;;5049991;28;19999;-57
2022/05/16 17:41:46;;;;;;;;;;;;;;;;;;5049503;28;19931;-56
2022/05/16 17:44:13;;;;;;;;;;;;;;;;;;5050993;28;19963;-57
2022/05/16 17:46:39;;;;;;;;;;;;;;;;;;5050094;28;19943;-56